createdAt,value
2022-10-28T00:01:42.067Z,100.00
2022-10-28T00:04:11.850Z,100.00
2022-10-28T00:06:45.857Z,100.00
2022-10-28T00:09:16.544Z,100.00
2022-10-28T00:11:46.687Z,100.00
2022-10-28T00:14:17.460Z,100.00
2022-10-28T00:16:48.656Z,100.00
2022-10-28T00:19:19.510Z,100.00
2022-10-28T00:21:48.399Z,100.00
2022-10-28T00:24:22.893Z,100.00
2022-10-28T00:26:52.215Z,100.00
2022-10-28T00:29:26.786Z,100.00
2022-10-28T00:32:08.186Z,100.00
2022-10-28T00:34:36.632Z,100.00
2022-10-28T00:37:09.841Z,100.00
2022-10-28T00:39:45.832Z,100.00
2022-10-28T00:42:26.529Z,100.00
2022-10-28T00:45:05.332Z,100.00
2022-10-28T00:47:57.654Z,100.00
2022-10-28T00:50:46.753Z,100.00
2022-10-28T00:53:22.324Z,100.00
2022-10-28T00:56:00.660Z,100.00
2022-10-28T00:58:37.913Z,100.00
2022-10-28T01:01:10.434Z,100.00
2022-10-28T01:03:41.803Z,100.00
2022-10-28T01:06:10.131Z,100.00
2022-10-28T01:08:43.467Z,100.00
2022-10-28T01:11:26.518Z,100.00
2022-10-28T01:14:14.336Z,100.00
2022-10-28T01:17:01.998Z,100.00
2022-10-28T01:19:50.951Z,100.00
2022-10-28T01:22:40.703Z,100.00
2022-10-28T01:25:31.476Z,100.00
2022-10-28T01:28:23.117Z,100.00
2022-10-28T01:31:14.343Z,100.00
2022-10-28T01:34:02.569Z,100.00
2022-10-28T01:36:53.449Z,100.00
2022-10-28T01:39:35.085Z,100.00
2022-10-28T01:42:26.344Z,100.00
2022-10-28T01:44:58.765Z,100.00
2022-10-28T01:47:32.396Z,100.00
2022-10-28T01:50:12.867Z,100.00
2022-10-28T01:52:51.395Z,100.00
2022-10-28T01:55:30.428Z,100.00
2022-10-28T01:58:01.038Z,100.00
2022-10-28T02:00:34.576Z,100.00
2022-10-28T02:03:02.585Z,100.00
2022-10-28T02:05:44.260Z,100.00
2022-10-28T02:08:23.863Z,100.00
2022-10-28T02:13:59.317Z,100.00
2022-10-28T02:16:50.295Z,100.00
2022-10-28T02:19:40.477Z,100.00
2022-10-28T02:22:32.342Z,100.00
2022-10-28T02:25:19.506Z,100.00
2022-10-28T02:30:59.247Z,100.00
2022-10-28T02:33:44.912Z,100.00
2022-10-28T02:36:18.551Z,100.00
2022-10-28T02:38:58.787Z,100.00
2022-10-28T02:41:51.320Z,100.00
2022-10-28T02:44:30.722Z,100.00
2022-10-28T02:47:01.413Z,100.00
2022-10-28T02:49:30.579Z,100.00
2022-10-28T02:52:22.955Z,100.00
2022-10-28T02:57:54.529Z,100.00
2022-10-28T03:00:26.552Z,100.00
2022-10-28T03:03:10.228Z,100.00
2022-10-28T03:05:41.379Z,100.00
2022-10-28T03:08:15.293Z,100.00
2022-10-28T03:10:47.672Z,100.00
2022-10-28T03:13:26.583Z,100.00
2022-10-28T03:16:03.497Z,100.00
2022-10-28T03:18:39.015Z,100.00
2022-10-28T03:21:22.787Z,100.00
2022-10-28T03:23:51.627Z,100.00
2022-10-28T03:26:19.448Z,100.00
2022-10-28T03:28:55.875Z,100.00
2022-10-28T03:31:26.684Z,100.00
2022-10-28T03:34:00.395Z,100.00
2022-10-28T03:36:31.355Z,100.00
2022-10-28T03:39:02.326Z,100.00
2022-10-28T03:41:36.303Z,100.00
2022-10-28T03:44:09.927Z,100.00
2022-10-28T03:46:41.252Z,100.00
2022-10-28T03:49:16.953Z,100.00
2022-10-28T03:51:47.310Z,100.00
2022-10-28T03:54:15.159Z,100.00
2022-10-28T03:56:46.847Z,100.00
2022-10-28T03:59:21.316Z,100.00
2022-10-28T04:01:52.961Z,100.00
2022-10-28T04:04:27.137Z,100.00
2022-10-28T04:07:00.704Z,100.00
2022-10-28T04:09:30.355Z,100.00
2022-10-28T04:12:07.087Z,100.00
2022-10-28T04:14:37.667Z,100.00
2022-10-28T04:17:11.611Z,100.00
2022-10-28T04:19:55.651Z,100.00
2022-10-28T04:22:25.596Z,100.00
2022-10-28T04:24:56.568Z,100.00
2022-10-28T04:27:32.305Z,100.00
2022-10-28T04:30:09.509Z,100.00
2022-10-28T04:32:42.197Z,100.00
2022-10-28T04:35:11.904Z,100.00
2022-10-28T04:37:42.880Z,100.00
2022-10-28T04:40:11.506Z,100.00
2022-10-28T04:42:41.629Z,100.00
2022-10-28T04:45:12.968Z,100.00
2022-10-28T04:47:49.325Z,100.00
2022-10-28T04:50:26.615Z,100.00
2022-10-28T04:53:04.811Z,100.00
2022-10-28T04:55:37.087Z,100.00
2022-10-28T04:58:04.910Z,100.00
2022-10-28T05:00:41.196Z,100.00
2022-10-28T05:03:18.618Z,100.00
2022-10-28T05:06:00.035Z,100.00
2022-10-28T05:08:30.255Z,100.00
2022-10-28T05:11:08.897Z,100.00
2022-10-28T05:13:42.101Z,100.00
2022-10-28T05:16:11.216Z,100.00
2022-10-28T05:18:41.787Z,100.00
2022-10-28T05:21:10.833Z,100.00
2022-10-28T05:23:51.562Z,100.00
2022-10-28T05:26:22.584Z,100.00
2022-10-28T05:28:51.648Z,100.00
2022-10-28T05:31:25.272Z,100.00
2022-10-28T05:36:44.085Z,100.00
2022-10-28T05:39:17.645Z,100.00
2022-10-28T05:41:48.640Z,100.00
2022-10-28T05:44:24.418Z,100.00
2022-10-28T05:46:55.029Z,100.00
2022-10-28T05:49:25.414Z,100.00
2022-10-28T05:52:02.944Z,100.00
2022-10-28T05:54:33.793Z,100.00
2022-10-28T05:57:07.309Z,100.00
2022-10-28T05:59:41.104Z,100.00
2022-10-28T06:02:24.372Z,100.00
2022-10-28T06:07:41.728Z,100.00
2022-10-28T06:10:18.736Z,100.00
2022-10-28T06:12:55.023Z,100.00
2022-10-28T06:15:26.274Z,100.00
2022-10-28T06:17:59.929Z,100.00
2022-10-28T06:20:30.867Z,100.00
2022-10-28T06:23:02.371Z,100.00
2022-10-28T06:25:38.638Z,100.00
2022-10-28T06:28:10.486Z,100.00
2022-10-28T06:30:39.878Z,100.00
2022-10-28T06:33:13.365Z,100.00
2022-10-28T06:35:43.846Z,100.00
2022-10-28T06:38:18.708Z,100.00
2022-10-28T06:41:01.620Z,100.00
2022-10-28T06:43:32.651Z,100.00
2022-10-28T06:46:06.695Z,100.00
2022-10-28T06:48:46.003Z,100.00
2022-10-28T06:51:14.319Z,100.00
2022-10-28T06:53:46.858Z,100.00
2022-10-28T06:56:16.097Z,100.00
2022-10-28T06:58:46.787Z,100.00
2022-10-28T07:01:24.485Z,100.00
2022-10-28T07:03:55.637Z,100.00
2022-10-28T07:06:25.789Z,100.00
2022-10-28T07:08:56.919Z,100.00
2022-10-28T07:11:26.884Z,100.00
2022-10-28T07:14:02.827Z,100.00
2022-10-28T07:16:30.968Z,100.00
2022-10-28T07:19:08.964Z,100.00
2022-10-28T07:21:47.721Z,100.00
2022-10-28T07:24:30.183Z,100.00
2022-10-28T07:27:01.602Z,100.00
2022-10-28T07:29:32.759Z,100.00
2022-10-28T07:34:45.439Z,100.00
2022-10-28T07:37:25.987Z,100.00
2022-10-28T07:39:56.637Z,100.00
2022-10-28T07:42:27.605Z,100.00
2022-10-28T07:45:04.948Z,100.00
2022-10-28T07:47:34.930Z,100.00
2022-10-28T07:50:08.771Z,100.00
2022-10-28T07:52:38.184Z,100.00
2022-10-28T07:55:14.071Z,100.00
2022-10-28T07:57:44.157Z,100.00
2022-10-28T08:00:18.361Z,100.00
2022-10-28T08:02:54.593Z,100.00
2022-10-28T08:05:33.153Z,100.00
2022-10-28T08:08:03.352Z,100.00
2022-10-28T08:10:37.398Z,100.00
2022-10-28T08:13:21.036Z,100.00
2022-10-28T08:15:58.902Z,100.00
2022-10-28T08:18:33.651Z,100.00
2022-10-28T08:21:05.360Z,100.00
2022-10-28T08:23:36.285Z,100.00
2022-10-28T08:26:12.898Z,100.00
2022-10-28T08:28:41.818Z,100.00
2022-10-28T08:31:12.796Z,100.00
2022-10-28T08:33:53.357Z,100.00
2022-10-28T08:36:23.296Z,100.00
2022-10-28T08:38:59.684Z,100.00
2022-10-28T08:41:51.898Z,100.00
2022-10-28T08:44:43.232Z,100.00
2022-10-28T08:47:32.934Z,100.00
2022-10-28T08:50:11.200Z,100.00
2022-10-28T08:52:57.358Z,100.00
2022-10-28T08:55:37.284Z,100.00
2022-10-28T08:58:17.181Z,100.00
2022-10-28T09:00:54.832Z,100.00
2022-10-28T09:03:26.883Z,100.00
2022-10-28T09:06:02.200Z,100.00
2022-10-28T09:08:37.477Z,100.00
2022-10-28T09:11:28.481Z,100.00
2022-10-28T09:14:17.903Z,100.00
2022-10-28T09:17:04.229Z,100.00
2022-10-28T09:19:37.868Z,100.00
2022-10-28T09:22:30.165Z,100.00
2022-10-28T09:25:06.187Z,100.00
2022-10-28T09:27:46.765Z,100.00
2022-10-28T09:30:42.614Z,100.00
2022-10-28T09:33:13.000Z,100.00
2022-10-28T09:35:58.737Z,100.00
2022-10-28T09:38:41.413Z,100.00
2022-10-28T09:41:15.130Z,100.00
2022-10-28T09:43:56.767Z,100.00
2022-10-28T09:46:34.610Z,100.00
2022-10-28T09:52:16.025Z,100.00
2022-10-28T09:54:56.003Z,100.00
2022-10-28T09:57:35.188Z,100.00
2022-10-28T10:00:13.829Z,100.00
2022-10-28T10:02:48.176Z,100.00
2022-10-28T10:05:18.564Z,100.00
2022-10-28T10:08:05.500Z,100.00
2022-10-28T10:10:56.732Z,100.00
2022-10-28T10:13:31.236Z,100.00
2022-10-28T10:16:05.972Z,100.00
2022-10-28T10:18:40.246Z,100.00
2022-10-28T10:21:12.790Z,100.00
2022-10-28T10:23:41.742Z,100.00
2022-10-28T10:29:01.180Z,100.00
2022-10-28T10:31:41.836Z,100.00
2022-10-28T10:34:39.586Z,100.00
2022-10-28T10:37:13.968Z,100.00
2022-10-28T10:39:45.330Z,100.00
2022-10-28T10:42:23.027Z,100.00
2022-10-28T10:45:08.025Z,100.00
2022-10-28T10:47:38.775Z,100.00
2022-10-28T10:50:44.655Z,100.00
2022-10-28T10:53:31.379Z,100.00
2022-10-28T10:56:05.812Z,100.00
2022-10-28T10:58:43.156Z,100.00
2022-10-28T11:01:21.576Z,100.00
2022-10-28T11:04:09.456Z,100.00
2022-10-28T11:06:49.400Z,100.00
2022-10-28T11:09:45.713Z,100.00
2022-10-28T11:12:19.865Z,100.00
2022-10-28T11:14:58.040Z,100.00
2022-10-28T11:20:00.956Z,100.00
2022-10-28T11:22:32.099Z,100.00
2022-10-28T11:25:23.898Z,100.00
2022-10-28T11:28:22.523Z,100.00
2022-10-28T11:31:14.353Z,100.00
2022-10-28T11:33:45.015Z,100.00
2022-10-28T11:36:35.287Z,100.00
2022-10-28T11:39:24.936Z,100.00
2022-10-28T11:41:52.758Z,100.00
2022-10-28T11:44:32.153Z,100.00
2022-10-28T11:47:22.805Z,100.00
2022-10-28T11:50:09.892Z,100.00
2022-10-28T11:53:02.742Z,100.00
2022-10-28T11:55:43.682Z,100.00
2022-10-28T11:58:36.918Z,100.00
2022-10-28T12:01:29.640Z,100.00
2022-10-28T12:04:18.361Z,100.00
2022-10-28T12:07:02.473Z,100.00
2022-10-28T12:09:45.030Z,100.00
2022-10-28T12:12:41.161Z,100.00
2022-10-28T12:15:27.201Z,100.00
2022-10-28T12:18:32.129Z,89.66
2022-10-28T12:21:18.914Z,86.62
2022-10-28T12:24:05.868Z,84.11
2022-10-28T12:26:57.495Z,100.00
2022-10-28T12:29:35.667Z,100.00
2022-10-28T12:32:16.553Z,100.00
2022-10-28T12:35:15.660Z,100.00
2022-10-28T12:37:56.325Z,100.00
2022-10-28T12:40:31.171Z,100.00
2022-10-28T12:43:04.265Z,100.00
2022-10-28T12:45:36.100Z,100.00
2022-10-28T12:48:25.651Z,100.00
2022-10-28T12:51:06.967Z,100.00
2022-10-28T12:53:37.637Z,100.00
2022-10-28T12:56:16.786Z,100.00
2022-10-28T12:59:07.632Z,100.00
2022-10-28T13:01:38.960Z,100.00
2022-10-28T13:04:07.498Z,100.00
2022-10-28T13:06:58.983Z,90.83
2022-10-28T13:10:08.226Z,82.27
2022-10-28T13:12:49.128Z,72.23
2022-10-28T13:15:57.660Z,70.03
2022-10-28T13:18:47.979Z,66.18
2022-10-28T13:21:51.166Z,71.30
2022-10-28T13:24:40.303Z,67.30
2022-10-28T13:27:14.202Z,82.28
2022-10-28T13:29:58.697Z,95.64
2022-10-28T13:32:49.136Z,92.29
2022-10-28T13:35:33.159Z,100.00
2022-10-28T13:38:10.462Z,100.00
2022-10-28T13:40:50.271Z,100.00
2022-10-28T13:43:25.299Z,100.00
2022-10-28T13:45:59.476Z,100.00
2022-10-28T13:48:55.016Z,100.00
2022-10-28T13:51:25.883Z,100.00
2022-10-28T13:54:25.718Z,100.00
2022-10-28T13:57:11.976Z,100.00
2022-10-28T13:59:49.106Z,100.00
2022-10-28T14:02:34.419Z,100.00
2022-10-28T14:05:13.162Z,100.00
2022-10-28T14:08:01.890Z,100.00
2022-10-28T14:10:40.636Z,100.00
2022-10-28T14:13:26.319Z,100.00
2022-10-28T14:16:14.522Z,100.00
2022-10-28T14:18:57.107Z,100.00
2022-10-28T14:21:27.306Z,100.00
2022-10-28T14:24:47.779Z,100.00
2022-10-28T14:27:56.434Z,100.00
2022-10-28T14:30:31.908Z,100.00
2022-10-28T14:33:20.000Z,100.00
2022-10-28T14:35:58.108Z,100.00
2022-10-28T14:38:41.070Z,100.00
2022-10-28T14:41:30.273Z,100.00
2022-10-28T14:44:09.681Z,100.00
2022-10-28T14:46:59.838Z,100.00
2022-10-28T14:49:39.440Z,100.00
2022-10-28T14:52:14.785Z,100.00
2022-10-28T14:54:49.031Z,100.00
2022-10-28T14:57:27.150Z,100.00
2022-10-28T15:00:00.176Z,100.00
2022-10-28T15:02:36.637Z,100.00
2022-10-28T15:05:22.716Z,100.00
2022-10-28T15:08:21.064Z,100.00
2022-10-28T15:10:57.548Z,100.00
2022-10-28T15:13:27.604Z,100.00
2022-10-28T15:16:12.649Z,100.00
2022-10-28T15:18:52.190Z,100.00
2022-10-28T15:21:30.355Z,100.00
2022-10-28T15:24:07.452Z,100.00
2022-10-28T15:26:37.757Z,100.00
2022-10-28T15:29:11.396Z,100.00
2022-10-28T15:32:10.900Z,100.00
2022-10-28T15:34:41.890Z,100.00
2022-10-28T15:37:12.475Z,100.00
2022-10-28T15:39:48.770Z,100.00
2022-10-28T15:42:44.792Z,100.00
2022-10-28T15:45:29.662Z,100.00
2022-10-28T15:47:59.662Z,100.00
2022-10-28T15:50:34.511Z,100.00
2022-10-28T15:53:14.103Z,100.00
2022-10-28T15:56:07.087Z,100.00
2022-10-28T15:58:43.145Z,100.00
2022-10-28T16:01:38.499Z,100.00
2022-10-28T16:04:32.455Z,100.00
2022-10-28T16:07:09.972Z,100.00
2022-10-28T16:09:46.800Z,100.00
2022-10-28T16:12:27.006Z,100.00
2022-10-28T16:15:16.186Z,100.00
2022-10-28T16:17:47.024Z,100.00
2022-10-28T16:20:19.257Z,100.00
2022-10-28T16:22:55.982Z,100.00
2022-10-28T16:25:29.545Z,100.00
2022-10-28T16:28:00.146Z,100.00
2022-10-28T16:30:38.049Z,100.00
2022-10-28T16:33:09.279Z,100.00
2022-10-28T16:35:45.096Z,100.00
2022-10-28T16:38:15.731Z,100.00
2022-10-28T16:40:51.392Z,100.00
2022-10-28T16:43:26.540Z,100.00
2022-10-28T16:46:03.837Z,100.00
2022-10-28T16:48:34.695Z,100.00
2022-10-28T16:51:08.897Z,100.00
2022-10-28T16:53:52.789Z,100.00
2022-10-28T16:56:23.715Z,100.00
2022-10-28T16:58:54.325Z,100.00
2022-10-28T17:01:28.043Z,100.00
2022-10-28T17:04:07.353Z,100.00
2022-10-28T17:06:46.270Z,100.00
2022-10-28T17:09:16.191Z,100.00
2022-10-28T17:11:49.856Z,100.00
2022-10-28T17:14:19.835Z,100.00
2022-10-28T17:16:52.481Z,100.00
2022-10-28T17:19:23.314Z,100.00
2022-10-28T17:21:59.284Z,100.00
2022-10-28T17:24:32.341Z,100.00
2022-10-28T17:27:08.678Z,100.00
2022-10-28T17:29:37.472Z,100.00
2022-10-28T17:32:12.902Z,100.00
2022-10-28T17:34:42.769Z,100.00
2022-10-28T17:37:17.665Z,100.00
2022-10-28T17:39:47.924Z,100.00
2022-10-28T17:42:18.665Z,100.00
2022-10-28T17:44:49.165Z,100.00
2022-10-28T17:47:22.318Z,100.00
2022-10-28T17:49:52.249Z,100.00
2022-10-28T17:52:35.628Z,100.00
2022-10-28T17:55:16.739Z,100.00
2022-10-28T17:57:49.545Z,100.00
2022-10-28T18:00:20.251Z,100.00
2022-10-28T18:02:57.029Z,100.00
2022-10-28T18:05:28.174Z,100.00
2022-10-28T18:08:01.630Z,100.00
2022-10-28T18:10:32.139Z,100.00
2022-10-28T18:13:05.211Z,100.00
2022-10-28T18:15:38.012Z,100.00
2022-10-28T18:18:10.141Z,100.00
2022-10-28T18:20:39.106Z,100.00
2022-10-28T18:23:13.229Z,100.00
2022-10-28T18:25:45.501Z,100.00
2022-10-28T18:28:20.364Z,100.00
2022-10-28T18:30:59.145Z,100.00
2022-10-28T18:33:32.848Z,100.00
2022-10-28T18:36:12.317Z,100.00
2022-10-28T18:38:44.021Z,100.00
2022-10-28T18:41:15.841Z,100.00
2022-10-28T18:43:48.414Z,100.00
2022-10-28T18:49:18.556Z,100.00
2022-10-28T18:51:49.738Z,100.00
2022-10-28T18:54:19.922Z,100.00
2022-10-28T18:56:50.530Z,100.00
2022-10-28T18:59:23.763Z,100.00
2022-10-28T19:01:51.412Z,100.00
2022-10-28T19:04:22.258Z,100.00
2022-10-28T19:06:50.057Z,100.00
2022-10-28T19:09:18.995Z,100.00
2022-10-28T19:14:36.666Z,100.00
2022-10-28T19:17:06.850Z,100.00
2022-10-28T19:19:39.335Z,100.00
2022-10-28T19:24:58.132Z,100.00
2022-10-28T19:27:34.721Z,100.00
2022-10-28T19:30:13.704Z,100.00
2022-10-28T19:32:53.750Z,100.00
2022-10-28T19:35:27.855Z,100.00
2022-10-28T19:38:01.206Z,100.00
2022-10-28T19:40:38.218Z,100.00
2022-10-28T19:43:07.868Z,100.00
2022-10-28T19:45:39.054Z,100.00
2022-10-28T19:48:09.418Z,100.00
2022-10-28T19:50:39.977Z,100.00
2022-10-28T19:53:11.605Z,100.00
2022-10-28T19:55:41.836Z,100.00
2022-10-28T20:14:54.353Z,100.00
2022-10-28T20:17:31.449Z,100.00
2022-10-28T20:20:07.292Z,100.00
2022-10-28T20:22:41.308Z,100.00
2022-10-28T20:25:16.771Z,100.00
2022-10-28T20:27:49.242Z,100.00
2022-10-28T20:33:10.050Z,100.00
2022-10-28T20:35:47.912Z,100.00
2022-10-28T20:38:21.215Z,100.00
2022-10-28T20:40:55.926Z,100.00
2022-10-28T20:43:45.242Z,100.00
2022-10-28T20:46:19.995Z,100.00
2022-10-28T20:48:55.135Z,100.00
2022-10-28T20:51:26.699Z,100.00
2022-10-28T20:54:01.530Z,100.00
2022-10-28T20:56:42.523Z,100.00
2022-10-28T20:59:11.571Z,100.00
2022-10-28T21:01:48.802Z,100.00
2022-10-28T21:04:28.450Z,100.00
2022-10-28T21:06:59.720Z,100.00
2022-10-28T21:09:30.934Z,100.00
2022-10-28T21:12:15.047Z,100.00
2022-10-28T21:14:49.562Z,100.00
2022-10-28T21:17:18.265Z,100.00
2022-10-28T21:22:32.842Z,100.00
2022-10-28T21:25:03.392Z,100.00
2022-10-28T21:27:37.532Z,100.00
2022-10-28T21:30:09.213Z,100.00
2022-10-28T21:32:45.816Z,100.00
2022-10-28T21:35:21.835Z,100.00
2022-10-28T21:37:55.106Z,100.00
2022-10-28T21:40:24.535Z,100.00
2022-10-28T21:42:55.373Z,100.00
2022-10-28T21:45:39.422Z,100.00
2022-10-28T21:48:12.857Z,100.00
2022-10-28T21:50:58.265Z,100.00
2022-10-28T21:53:29.559Z,100.00
2022-10-28T21:56:22.198Z,100.00
2022-10-28T21:58:55.004Z,100.00
2022-10-28T22:01:38.933Z,100.00
2022-10-28T22:04:09.632Z,100.00
2022-10-28T22:06:40.192Z,100.00
2022-10-28T22:09:08.146Z,100.00
2022-10-28T22:11:38.181Z,100.00
2022-10-28T22:14:09.166Z,100.00
2022-10-28T22:16:40.355Z,100.00
2022-10-28T22:19:19.142Z,100.00
2022-10-28T22:21:52.941Z,100.00
2022-10-28T22:24:22.441Z,100.00
2022-10-28T22:26:59.080Z,100.00
2022-10-28T22:29:29.568Z,100.00
2022-10-28T22:32:02.959Z,100.00
2022-10-28T22:34:36.060Z,100.00
2022-10-28T22:37:13.941Z,100.00
2022-10-28T22:39:46.841Z,100.00
2022-10-28T22:42:22.094Z,100.00
2022-10-28T22:44:52.310Z,100.00
2022-10-28T22:47:21.494Z,100.00
2022-10-28T22:49:52.264Z,100.00
2022-10-28T22:52:29.879Z,100.00
2022-10-28T22:55:00.374Z,100.00
2022-10-28T22:57:33.298Z,100.00
2022-10-28T23:00:03.344Z,100.00
2022-10-28T23:02:35.188Z,100.00
2022-10-28T23:05:09.041Z,100.00
2022-10-28T23:07:39.723Z,100.00
2022-10-28T23:10:14.465Z,100.00
2022-10-28T23:12:45.445Z,100.00
2022-10-28T23:15:16.806Z,100.00
2022-10-28T23:18:01.386Z,100.00
2022-10-28T23:20:34.996Z,100.00
2022-10-28T23:23:14.366Z,100.00
2022-10-28T23:25:48.262Z,100.00
2022-10-28T23:28:21.519Z,100.00
2022-10-28T23:31:21.609Z,100.00
2022-10-28T23:33:58.556Z,100.00
2022-10-28T23:36:35.904Z,100.00
2022-10-28T23:39:13.506Z,100.00
2022-10-28T23:41:47.028Z,100.00
2022-10-28T23:44:18.207Z,100.00
2022-10-28T23:47:01.723Z,100.00
2022-10-28T23:49:41.399Z,100.00
2022-10-28T23:52:09.580Z,100.00
2022-10-28T23:54:51.874Z,100.00
2022-10-28T23:57:22.270Z,100.00
2022-10-28T23:59:56.305Z,100.00
